createdAt,value
2018-02-15T00:01:55.710Z,101194.25
2018-02-15T00:04:24.862Z,101196.02
2018-02-15T00:06:53.293Z,101190.67
2018-02-15T00:09:21.721Z,101183.75
2018-02-15T00:11:50.181Z,101182.90
2018-02-15T00:14:18.558Z,101187.31
2018-02-15T00:16:46.966Z,101188.23
2018-02-15T00:19:15.348Z,101182.47
2018-02-15T00:21:43.754Z,101175.63
2018-02-15T00:24:12.917Z,101172.12
2018-02-15T00:26:41.325Z,101179.87
2018-02-15T00:29:09.721Z,101170.79
2018-02-15T00:31:38.106Z,101162.95
2018-02-15T00:34:06.506Z,101158.61
2018-02-15T00:36:34.982Z,101160.77
2018-02-15T00:39:03.352Z,101169.73
2018-02-15T00:41:31.753Z,101180.88
2018-02-15T00:44:00.215Z,101178.47
2018-02-15T00:46:28.584Z,101178.16
2018-02-15T00:48:56.962Z,101172.89
2018-02-15T00:51:25.377Z,101174.98
2018-02-15T00:53:53.745Z,101175.00
2018-02-15T00:56:22.122Z,101164.77
2018-02-15T00:58:50.521Z,101170.03
2018-02-15T01:01:18.910Z,101171.20
2018-02-15T01:03:47.326Z,101162.66
2018-02-15T01:06:15.705Z,101163.14
2018-02-15T01:08:44.130Z,101162.09
2018-02-15T01:11:12.505Z,101164.75
2018-02-15T01:13:40.934Z,101158.67
2018-02-15T01:16:10.166Z,101148.09
2018-02-15T01:18:38.669Z,101147.05
2018-02-15T01:21:07.139Z,101147.67
2018-02-15T01:23:35.598Z,101153.97
2018-02-15T01:26:03.967Z,101148.11
2018-02-15T01:28:32.376Z,101143.83
2018-02-15T01:31:00.770Z,101139.08
2018-02-15T01:33:29.212Z,101143.47
2018-02-15T01:35:57.621Z,101139.36
2018-02-15T01:38:25.997Z,101133.61
2018-02-15T01:40:54.469Z,101138.72
2018-02-15T01:43:22.862Z,101138.80
2018-02-15T01:45:51.365Z,101141.92
2018-02-15T01:48:20.512Z,101135.08
2018-02-15T01:50:48.920Z,101135.63
2018-02-15T01:53:17.291Z,101135.36
2018-02-15T01:55:45.694Z,101141.64
2018-02-15T01:58:14.087Z,101145.56
2018-02-15T02:00:43.281Z,101142.06
2018-02-15T02:03:11.846Z,101137.10
2018-02-15T02:05:40.380Z,101135.70
2018-02-15T02:08:08.810Z,101132.10
2018-02-15T02:10:37.192Z,101127.06
2018-02-15T02:15:40.090Z,101117.75
2018-02-15T02:18:08.498Z,101110.98
2018-02-15T02:20:37.646Z,101103.91
2018-02-15T02:23:06.053Z,101095.86
2018-02-15T02:25:34.474Z,101101.80
2018-02-15T02:28:02.844Z,101082.55
2018-02-15T02:30:31.230Z,101085.92
2018-02-15T02:32:59.620Z,101081.17
2018-02-15T02:35:27.994Z,101079.42
2018-02-15T02:37:56.418Z,101077.23
2018-02-15T02:40:24.870Z,101075.98
2018-02-15T02:42:53.261Z,101077.81
2018-02-15T02:45:21.669Z,101062.00
2018-02-15T02:47:50.042Z,101069.42
2018-02-15T02:50:18.464Z,101054.72
2018-02-15T02:52:46.842Z,101045.11
2018-02-15T02:55:15.231Z,101036.25
2018-02-15T02:57:43.616Z,101029.11
2018-02-15T03:00:11.984Z,101022.19
2018-02-15T03:02:40.389Z,101026.93
2018-02-15T03:05:08.854Z,101013.13
2018-02-15T03:07:37.250Z,101018.33
2018-02-15T03:10:05.694Z,101029.64
2018-02-15T03:12:34.070Z,101040.70
2018-02-15T03:15:04.193Z,101052.80
2018-02-15T03:17:32.598Z,101048.89
2018-02-15T03:20:01.161Z,101044.91
2018-02-15T03:22:29.561Z,101043.73
2018-02-15T03:24:57.938Z,101038.95
2018-02-15T03:27:26.343Z,101041.41
2018-02-15T03:29:54.732Z,101046.30
2018-02-15T03:32:23.126Z,101047.08
2018-02-15T03:34:52.294Z,101044.42
2018-02-15T03:37:20.723Z,101043.71
2018-02-15T03:39:49.114Z,101047.00
2018-02-15T03:42:17.582Z,101051.61
2018-02-15T03:44:45.944Z,101053.16
2018-02-15T03:47:15.195Z,101055.40
2018-02-15T03:49:43.587Z,101046.92
2018-02-15T03:52:12.035Z,101048.07
2018-02-15T03:54:40.444Z,101044.63
2018-02-15T03:57:08.853Z,101043.71
2018-02-15T03:59:37.998Z,101035.94
2018-02-15T04:02:06.383Z,101042.09
2018-02-15T04:04:34.857Z,101045.96
2018-02-15T04:07:03.289Z,101032.31
2018-02-15T04:09:32.440Z,101020.55
2018-02-15T04:12:00.920Z,101027.03
2018-02-15T04:14:29.400Z,101014.14
2018-02-15T04:16:57.833Z,101013.11
2018-02-15T04:19:26.241Z,101002.87
2018-02-15T04:21:54.758Z,101002.25
2018-02-15T04:24:23.138Z,101006.66
2018-02-15T04:26:51.566Z,101008.95
2018-02-15T04:29:19.940Z,101003.84
2018-02-15T04:31:48.321Z,101002.02
2018-02-15T04:34:16.729Z,101006.06
2018-02-15T04:36:45.187Z,101007.19
2018-02-15T04:39:13.562Z,101004.10
2018-02-15T04:41:41.966Z,101002.28
2018-02-15T04:44:10.348Z,101002.98
2018-02-15T04:46:38.749Z,101003.94
2018-02-15T04:49:07.128Z,101007.47
2018-02-15T04:51:35.683Z,101012.63
2018-02-15T04:54:04.084Z,101002.23
2018-02-15T04:56:32.463Z,101004.36
2018-02-15T04:59:00.871Z,101009.34
2018-02-15T05:01:30.046Z,101007.31
2018-02-15T05:03:58.498Z,100997.00
2018-02-15T05:06:26.904Z,101000.32
2018-02-15T05:08:55.277Z,101000.06
2018-02-15T05:11:23.673Z,100999.53
2018-02-15T05:13:52.918Z,100988.27
2018-02-15T05:16:21.311Z,100989.59
2018-02-15T05:18:49.705Z,100991.00
2018-02-15T05:21:18.173Z,100992.59
2018-02-15T05:23:46.547Z,100994.75
2018-02-15T05:26:14.932Z,100997.83
2018-02-15T05:28:43.341Z,100996.16
2018-02-15T05:31:12.558Z,100997.08
2018-02-15T05:33:40.966Z,100996.92
2018-02-15T05:36:09.351Z,100994.88
2018-02-15T05:38:38.002Z,100992.14
2018-02-15T05:41:07.258Z,100993.42
2018-02-15T05:43:35.724Z,100984.23
2018-02-15T05:46:04.196Z,100984.57
2018-02-15T05:48:32.627Z,100983.19
2018-02-15T05:51:01.818Z,100988.27
2018-02-15T05:53:30.374Z,100994.84
2018-02-15T05:55:58.764Z,100992.42
2018-02-15T05:58:27.208Z,100992.46
2018-02-15T06:00:55.821Z,100984.56
2018-02-15T06:03:24.216Z,100992.46
2018-02-15T06:05:52.622Z,100983.63
2018-02-15T06:08:21.078Z,100991.16
2018-02-15T06:10:49.491Z,100995.89
2018-02-15T06:13:17.896Z,100992.94
2018-02-15T06:15:46.360Z,100992.70
2018-02-15T06:18:14.768Z,100991.71
2018-02-15T06:20:43.194Z,100988.91
2018-02-15T06:23:12.421Z,100997.10
2018-02-15T06:25:40.827Z,100991.31
2018-02-15T06:28:09.346Z,100991.28
2018-02-15T06:30:38.573Z,100993.67
2018-02-15T06:33:06.982Z,100993.05
2018-02-15T06:35:35.407Z,100985.64
2018-02-15T06:38:04.606Z,100980.69
2018-02-15T06:40:33.792Z,100976.91
2018-02-15T06:43:02.237Z,100983.56
2018-02-15T06:45:31.435Z,100985.60
2018-02-15T06:47:59.918Z,100979.78
2018-02-15T06:50:28.330Z,100978.49
2018-02-15T06:52:56.745Z,100970.13
2018-02-15T06:55:25.170Z,100964.55
2018-02-15T06:57:53.582Z,100964.55
2018-02-15T07:00:22.032Z,100959.89
2018-02-15T07:02:50.440Z,100958.64
2018-02-15T07:05:18.869Z,100953.58
2018-02-15T07:07:47.337Z,100952.91
2018-02-15T07:10:15.786Z,100958.06
2018-02-15T07:12:45.021Z,100963.45
2018-02-15T07:15:13.462Z,100955.17
2018-02-15T07:17:41.889Z,100955.13
2018-02-15T07:20:10.322Z,100948.84
2018-02-15T07:22:38.753Z,100937.70
2018-02-15T07:25:07.186Z,100935.94
2018-02-15T07:27:36.375Z,100943.03
2018-02-15T07:30:04.808Z,100941.28
2018-02-15T07:32:33.237Z,100942.89
2018-02-15T07:35:01.683Z,100929.47
2018-02-15T07:37:30.117Z,100928.28
2018-02-15T07:39:58.528Z,100940.59
2018-02-15T07:42:26.939Z,100937.95
2018-02-15T07:44:56.162Z,100936.58
2018-02-15T07:47:24.598Z,100938.36
2018-02-15T07:49:53.010Z,100937.45
2018-02-15T07:52:21.453Z,100942.59
2018-02-15T07:54:49.873Z,100934.05
2018-02-15T07:57:18.311Z,100937.73
2018-02-15T07:59:46.740Z,100936.50
2018-02-15T08:02:15.147Z,100934.05
2018-02-15T08:04:43.590Z,100938.55
2018-02-15T08:07:12.028Z,100943.59
2018-02-15T08:09:40.476Z,100940.20
2018-02-15T08:12:08.890Z,100937.28
2018-02-15T08:14:37.308Z,100948.23
2018-02-15T08:17:05.732Z,100943.91
2018-02-15T08:19:34.176Z,100941.73
2018-02-15T08:22:02.580Z,100940.18
2018-02-15T08:24:30.987Z,100951.94
2018-02-15T08:26:59.425Z,100937.65
2018-02-15T08:29:27.837Z,100940.24
2018-02-15T08:31:57.021Z,100938.46
2018-02-15T08:34:25.454Z,100936.95
2018-02-15T08:36:54.669Z,100943.47
2018-02-15T08:39:23.075Z,100943.95
2018-02-15T08:41:51.525Z,100930.75
2018-02-15T08:44:19.992Z,100930.52
2018-02-15T08:46:48.382Z,100926.80
2018-02-15T08:49:16.916Z,100925.86
2018-02-15T08:51:45.335Z,100911.91
2018-02-15T08:54:13.778Z,100902.09
2018-02-15T08:56:42.207Z,100901.40
2018-02-15T08:59:10.602Z,100888.39
2018-02-15T09:01:39.019Z,100902.02
2018-02-15T09:04:07.443Z,100899.14
2018-02-15T09:06:35.843Z,100897.95
2018-02-15T09:09:04.264Z,100909.41
2018-02-15T09:11:32.669Z,100899.22
2018-02-15T09:14:01.878Z,100907.77
2018-02-15T09:16:30.274Z,100904.32
2018-02-15T09:18:58.679Z,100896.88
2018-02-15T09:21:27.239Z,100900.28
2018-02-15T09:23:55.637Z,100903.52
2018-02-15T09:26:24.072Z,100899.96
2018-02-15T09:28:52.528Z,100899.11
2018-02-15T09:31:20.927Z,100896.36
2018-02-15T09:33:49.368Z,100896.94
2018-02-15T09:36:17.798Z,100904.64
2018-02-15T09:38:46.198Z,100902.50
2018-02-15T09:41:14.619Z,100897.02
2018-02-15T09:43:43.053Z,100894.59
2018-02-15T09:46:11.471Z,100891.90
2018-02-15T09:48:39.920Z,100878.91
2018-02-15T09:51:08.310Z,100878.06
2018-02-15T09:53:36.724Z,100880.55
2018-02-15T09:56:05.929Z,100869.89
2018-02-15T09:58:35.103Z,100863.74
2018-02-15T10:01:03.520Z,100876.70
2018-02-15T10:03:31.931Z,100872.11
2018-02-15T10:06:00.344Z,100870.73
2018-02-15T10:08:28.797Z,100867.31
2018-02-15T10:10:57.206Z,100874.42
2018-02-15T10:13:25.604Z,100873.47
2018-02-15T10:15:54.803Z,100869.34
2018-02-15T10:18:23.978Z,100876.09
2018-02-15T10:20:52.397Z,100866.41
2018-02-15T10:23:20.815Z,100858.30
2018-02-15T10:25:49.234Z,100861.69
2018-02-15T10:28:18.422Z,100861.19
2018-02-15T10:30:46.830Z,100848.23
2018-02-15T10:33:15.253Z,100844.48
2018-02-15T10:35:43.673Z,100834.34
2018-02-15T10:38:12.885Z,100835.20
2018-02-15T10:40:41.308Z,100825.05
2018-02-15T10:43:09.711Z,100825.49
2018-02-15T10:45:38.144Z,100828.89
2018-02-15T10:48:06.570Z,100831.56
2018-02-15T10:50:35.018Z,100824.98
2018-02-15T10:53:03.438Z,100818.53
2018-02-15T10:55:32.654Z,100819.63
2018-02-15T10:58:01.094Z,100819.06
2018-02-15T11:00:34.923Z,100812.09
2018-02-15T11:03:09.386Z,100807.75
2018-02-15T11:05:40.123Z,100793.95
2018-02-15T11:08:08.576Z,100795.05
2018-02-15T11:10:37.011Z,100793.13
2018-02-15T11:13:05.419Z,100786.14
2018-02-15T11:15:34.605Z,100784.44
2018-02-15T11:18:03.033Z,100775.77
2018-02-15T11:20:31.433Z,100776.58
2018-02-15T11:22:59.862Z,100781.16
2018-02-15T11:25:29.039Z,100781.70
2018-02-15T11:27:57.483Z,100766.34
2018-02-15T11:30:25.911Z,100768.41
2018-02-15T11:32:55.092Z,100760.92
2018-02-15T11:35:23.557Z,100752.97
2018-02-15T11:37:52.020Z,100761.25
2018-02-15T11:40:20.417Z,100748.63
2018-02-15T11:42:48.844Z,100753.52
2018-02-15T11:45:17.316Z,100750.69
2018-02-15T11:47:45.729Z,100754.92
2018-02-15T11:50:14.174Z,100745.66
2018-02-15T11:52:42.611Z,100742.98
2018-02-15T11:55:11.011Z,100743.47
2018-02-15T11:57:39.446Z,100748.73
2018-02-15T12:00:07.847Z,100739.34
2018-02-15T12:02:36.289Z,100736.77
2018-02-15T12:05:04.686Z,100737.60
2018-02-15T12:07:33.084Z,100730.62
2018-02-15T12:10:01.523Z,100723.52
2018-02-15T12:12:29.920Z,100716.62
2018-02-15T12:14:58.338Z,100711.50
2018-02-15T12:17:26.782Z,100702.95
2018-02-15T12:19:55.198Z,100705.58
2018-02-15T12:22:23.597Z,100702.78
2018-02-15T12:24:52.800Z,100699.53
2018-02-15T12:27:22.024Z,100694.78
2018-02-15T12:29:50.451Z,100689.17
2018-02-15T12:32:18.852Z,100690.59
2018-02-15T12:34:48.028Z,100682.53
2018-02-15T12:37:16.470Z,100676.69
2018-02-15T12:39:44.865Z,100673.16
2018-02-15T12:42:13.272Z,100675.78
2018-02-15T12:44:41.711Z,100682.02
2018-02-15T12:47:10.114Z,100678.84
2018-02-15T12:49:38.542Z,100675.73
2018-02-15T12:52:06.986Z,100674.25
2018-02-15T12:54:35.383Z,100669.76
2018-02-15T12:57:04.582Z,100668.30
2018-02-15T12:59:33.745Z,100673.23
2018-02-15T13:02:02.162Z,100671.23
2018-02-15T13:04:31.350Z,100676.69
2018-02-15T13:07:00.560Z,100668.28
2018-02-15T13:09:29.722Z,100672.36
2018-02-15T13:11:58.162Z,100686.09
2018-02-15T13:14:26.573Z,100695.50
2018-02-15T13:16:57.785Z,100694.94
2018-02-15T13:19:43.883Z,100696.42
2018-02-15T13:22:29.892Z,100695.58
2018-02-15T13:24:58.306Z,100696.77
2018-02-15T13:30:37.472Z,100701.66
2018-02-15T13:33:06.876Z,100702.29
2018-02-15T13:35:35.316Z,100704.83
2018-02-15T13:38:03.730Z,100713.83
2018-02-15T13:40:32.921Z,100703.05
2018-02-15T13:43:02.113Z,100701.61
2018-02-15T13:45:30.559Z,100700.48
2018-02-15T13:47:58.985Z,100688.83
2018-02-15T13:50:27.670Z,100687.13
2018-02-15T13:52:56.906Z,100677.42
2018-02-15T13:55:25.303Z,100676.84
2018-02-15T13:57:53.722Z,100670.20
2018-02-15T14:00:22.931Z,100665.28
2018-02-15T14:02:52.109Z,100661.95
2018-02-15T14:05:20.520Z,100656.96
2018-02-15T14:07:48.948Z,100648.89
2018-02-15T14:10:17.350Z,100645.45
2018-02-15T14:12:45.775Z,100647.48
2018-02-15T14:15:14.171Z,100637.77
2018-02-15T14:17:42.712Z,100644.74
2018-02-15T14:20:12.023Z,100641.59
2018-02-15T14:22:40.486Z,100641.03
2018-02-15T14:25:08.980Z,100641.55
2018-02-15T14:27:37.378Z,100634.88
2018-02-15T14:30:05.802Z,100645.97
2018-02-15T14:32:34.264Z,100645.83
2018-02-15T14:35:03.433Z,100646.73
2018-02-15T14:37:31.865Z,100636.19
2018-02-15T14:40:00.256Z,100627.27
2018-02-15T14:42:29.442Z,100618.94
2018-02-15T14:44:58.669Z,100633.25
2018-02-15T14:47:27.126Z,100631.70
2018-02-15T14:49:56.311Z,100646.20
2018-02-15T14:52:24.746Z,100646.50
2018-02-15T14:54:53.173Z,100647.89
2018-02-15T14:57:21.604Z,100650.64
2018-02-15T14:59:50.049Z,100650.64
2018-02-15T15:02:19.218Z,100639.27
2018-02-15T15:04:47.686Z,100641.56
2018-02-15T15:07:16.113Z,100639.75
2018-02-15T15:09:44.585Z,100636.11
2018-02-15T15:12:13.098Z,100646.80
2018-02-15T15:14:41.511Z,100648.68
2018-02-15T15:17:09.960Z,100655.14
2018-02-15T15:19:38.365Z,100663.59
2018-02-15T15:22:07.306Z,100666.72
2018-02-15T15:24:36.553Z,100664.51
2018-02-15T15:27:04.950Z,100656.12
2018-02-15T15:29:33.389Z,100661.55
2018-02-15T15:32:01.810Z,100656.61
2018-02-15T15:34:30.414Z,100648.66
2018-02-15T15:36:59.563Z,100639.44
2018-02-15T15:39:27.974Z,100651.77
2018-02-15T15:41:56.365Z,100638.97
2018-02-15T15:44:25.584Z,100640.34
2018-02-15T15:46:59.028Z,100652.37
2018-02-15T15:49:27.498Z,100646.03
2018-02-15T15:51:56.026Z,100644.20
2018-02-15T15:54:25.224Z,100653.67
2018-02-15T15:56:54.420Z,100643.50
2018-02-15T15:59:23.595Z,100655.95
2018-02-15T16:01:52.009Z,100651.27
2018-02-15T16:04:20.411Z,100654.37
2018-02-15T16:06:48.850Z,100647.91
2018-02-15T16:09:18.065Z,100643.77
2018-02-15T16:11:47.234Z,100637.34
2018-02-15T16:14:15.680Z,100637.34
2018-02-15T16:16:44.076Z,100633.59
2018-02-15T16:19:12.583Z,100633.34
2018-02-15T16:21:41.763Z,100630.14
2018-02-15T16:24:10.160Z,100624.22
2018-02-15T16:26:38.581Z,100622.56
2018-02-15T16:29:07.093Z,100622.14
2018-02-15T16:31:35.504Z,100620.67
2018-02-15T16:34:03.940Z,100624.91
2018-02-15T16:36:32.354Z,100625.07
2018-02-15T16:39:00.793Z,100634.91
2018-02-15T16:41:29.239Z,100633.55
2018-02-15T16:43:57.633Z,100635.42
2018-02-15T16:46:26.298Z,100633.02
2018-02-15T16:48:55.518Z,100626.45
2018-02-15T16:51:23.931Z,100626.55
2018-02-15T16:53:52.354Z,100625.19
2018-02-15T16:56:20.774Z,100624.95
2018-02-15T16:58:49.398Z,100626.87
2018-02-15T17:01:18.573Z,100627.36
2018-02-15T17:03:46.986Z,100627.78
2018-02-15T17:06:15.398Z,100633.42
2018-02-15T17:08:43.813Z,100634.50
2018-02-15T17:11:12.244Z,100640.66
2018-02-15T17:13:40.682Z,100646.67
2018-02-15T17:16:09.068Z,100638.98
2018-02-15T17:18:38.285Z,100645.41
2018-02-15T17:21:06.710Z,100639.57
2018-02-15T17:23:35.153Z,100638.28
2018-02-15T17:26:03.568Z,100642.48
2018-02-15T17:28:31.994Z,100640.70
2018-02-15T17:31:01.162Z,100636.38
2018-02-15T17:33:29.606Z,100630.48
2018-02-15T17:35:58.018Z,100613.95
2018-02-15T17:38:26.459Z,100614.78
2018-02-15T17:40:54.889Z,100632.23
2018-02-15T17:43:23.322Z,100625.37
2018-02-15T17:45:51.767Z,100627.81
2018-02-15T17:48:20.186Z,100621.67
2018-02-15T17:50:48.596Z,100619.70
2018-02-15T17:53:17.021Z,100628.23
2018-02-15T17:55:46.211Z,100625.27
2018-02-15T17:58:14.634Z,100621.61
2018-02-15T18:00:43.064Z,100617.76
2018-02-15T18:03:11.532Z,100611.70
2018-02-15T18:05:40.059Z,100616.92
2018-02-15T18:08:08.500Z,100613.66
2018-02-15T18:10:36.904Z,100616.77
2018-02-15T18:13:05.322Z,100621.10
2018-02-15T18:15:33.747Z,100629.67
2018-02-15T18:18:02.176Z,100631.14
2018-02-15T18:20:30.619Z,100626.48
2018-02-15T18:22:59.041Z,100640.34
2018-02-15T18:25:27.477Z,100640.67
2018-02-15T18:27:55.913Z,100638.34
2018-02-15T18:30:24.348Z,100639.58
2018-02-15T18:32:52.814Z,100628.21
2018-02-15T18:35:21.231Z,100620.41
2018-02-15T18:37:49.806Z,100616.42
2018-02-15T18:40:18.267Z,100614.42
2018-02-15T18:42:46.703Z,100607.66
2018-02-15T18:45:15.129Z,100616.71
2018-02-15T18:47:43.561Z,100615.91
2018-02-15T18:50:12.022Z,100625.19
2018-02-15T18:52:40.414Z,100613.81
2018-02-15T18:55:08.818Z,100607.80
2018-02-15T18:57:37.250Z,100615.38
2018-02-15T19:00:05.666Z,100621.81
2018-02-15T19:02:34.063Z,100615.31
2018-02-15T19:05:02.511Z,100617.92
2018-02-15T19:07:30.906Z,100611.55
2018-02-15T19:09:59.346Z,100604.73
2018-02-15T19:12:27.747Z,100606.89
2018-02-15T19:14:56.149Z,100604.75
2018-02-15T19:17:24.594Z,100603.48
2018-02-15T19:19:52.998Z,100606.29
2018-02-15T19:22:21.391Z,100601.98
2018-02-15T19:24:49.842Z,100603.16
2018-02-15T19:27:18.248Z,100597.41
2018-02-15T19:29:46.688Z,100605.47
2018-02-15T19:32:15.086Z,100605.67
2018-02-15T19:34:43.486Z,100609.39
2018-02-15T19:37:11.925Z,100607.69
2018-02-15T19:39:40.326Z,100601.16
2018-02-15T19:42:08.725Z,100602.29
2018-02-15T19:44:37.140Z,100602.04
2018-02-15T19:47:05.573Z,100604.05
2018-02-15T19:49:33.972Z,100606.36
2018-02-15T19:52:02.377Z,100610.91
2018-02-15T19:54:30.813Z,100612.03
2018-02-15T19:56:59.993Z,100612.09
2018-02-15T19:59:28.404Z,100615.80
2018-02-15T20:01:56.858Z,100616.67
2018-02-15T20:04:25.256Z,100621.82
2018-02-15T20:06:53.674Z,100623.94
2018-02-15T20:09:22.105Z,100623.53
2018-02-15T20:11:51.286Z,100622.91
2018-02-15T20:14:19.674Z,100625.12
2018-02-15T20:16:48.139Z,100619.36
2018-02-15T20:19:17.302Z,100616.31
2018-02-15T20:21:45.718Z,100613.33
2018-02-15T20:24:14.113Z,100609.55
2018-02-15T20:26:48.067Z,100614.66
2018-02-15T20:29:16.477Z,100615.70
2018-02-15T20:31:44.870Z,100628.43
2018-02-15T20:34:13.292Z,100630.53
2018-02-15T20:36:41.705Z,100627.09
2018-02-15T20:39:15.685Z,100624.13
2018-02-15T20:41:44.081Z,100615.03
2018-02-15T20:44:12.506Z,100611.20
2018-02-15T20:46:40.934Z,100617.39
2018-02-15T20:49:14.859Z,100607.58
2018-02-15T20:51:48.690Z,100617.50
2018-02-15T20:54:22.627Z,100627.78
2018-02-15T20:56:51.828Z,100628.25
2018-02-15T20:59:20.237Z,100633.15
2018-02-15T21:01:48.662Z,100634.69
2018-02-15T21:04:17.066Z,100631.27
2018-02-15T21:06:45.470Z,100633.76
2018-02-15T21:09:13.879Z,100636.97
2018-02-15T21:11:42.286Z,100645.97
2018-02-15T21:14:10.720Z,100647.43
2018-02-15T21:16:39.114Z,100650.19
2018-02-15T21:19:07.525Z,100640.30
2018-02-15T21:21:35.943Z,100658.50
2018-02-15T21:24:04.381Z,100654.55
2018-02-15T21:26:32.793Z,100652.14
2018-02-15T21:29:01.258Z,100643.72
2018-02-15T21:31:29.660Z,100651.80
2018-02-15T21:33:58.096Z,100660.11
2018-02-15T21:36:26.525Z,100660.86
2018-02-15T21:38:54.921Z,100665.72
2018-02-15T21:41:23.354Z,100674.47
2018-02-15T21:43:51.790Z,100674.23
2018-02-15T21:46:20.215Z,100677.05
2018-02-15T21:48:49.453Z,100679.05
2018-02-15T21:51:17.882Z,100684.69
2018-02-15T21:53:47.054Z,100691.42
2018-02-15T21:56:15.517Z,100698.80
2018-02-15T21:58:43.933Z,100693.76
2018-02-15T22:01:12.359Z,100696.19
2018-02-15T22:03:40.784Z,100689.95
2018-02-15T22:06:09.285Z,100688.44
2018-02-15T22:08:38.478Z,100693.61
2018-02-15T22:11:07.663Z,100692.00
2018-02-15T22:13:36.101Z,100693.97
2018-02-15T22:16:04.518Z,100693.83
2018-02-15T22:18:32.948Z,100701.97
2018-02-15T22:21:01.338Z,100704.72
2018-02-15T22:23:29.748Z,100707.33
2018-02-15T22:25:58.114Z,100707.70
2018-02-15T22:28:26.502Z,100714.30
2018-02-15T22:30:54.874Z,100719.05
2018-02-15T22:33:23.281Z,100723.00
2018-02-15T22:35:52.422Z,100723.64
2018-02-15T22:38:20.839Z,100719.71
2018-02-15T22:40:49.274Z,100722.77
2018-02-15T22:43:17.638Z,100728.87
2018-02-15T22:45:46.146Z,100725.83
2018-02-15T22:48:14.506Z,100719.39
2018-02-15T22:50:43.000Z,100722.44
2018-02-15T22:53:11.366Z,100730.08
2018-02-15T22:55:39.860Z,100729.34
2018-02-15T22:58:08.255Z,100732.34
2018-02-15T23:00:36.621Z,100731.00
2018-02-15T23:03:05.026Z,100742.40
2018-02-15T23:05:33.422Z,100752.09
2018-02-15T23:08:01.841Z,100736.92
2018-02-15T23:10:30.690Z,100747.41
2018-02-15T23:12:59.859Z,100741.73
2018-02-15T23:15:28.253Z,100745.55
2018-02-15T23:17:56.873Z,100743.22
2018-02-15T23:20:26.006Z,100745.39
2018-02-15T23:22:54.405Z,100750.20
2018-02-15T23:25:22.925Z,100748.95
2018-02-15T23:27:52.130Z,100754.20
2018-02-15T23:30:20.542Z,100760.19
2018-02-15T23:32:48.933Z,100755.80
2018-02-15T23:35:17.437Z,100761.41
2018-02-15T23:37:46.117Z,100771.20
2018-02-15T23:40:14.545Z,100769.95
2018-02-15T23:42:44.683Z,100775.69
2018-02-15T23:45:13.089Z,100774.32
2018-02-15T23:47:41.497Z,100783.42
2018-02-15T23:50:10.655Z,100785.56
2018-02-15T23:52:39.068Z,100781.14
2018-02-15T23:55:07.499Z,100783.38
2018-02-15T23:57:36.150Z,100790.33
